Time;durP1;ratioP1;P1;durP2;ratioP2;P2;SDS_P1;SDS_P2;PMS_P1;PMS_P2;Temp;Humidity;BMP_temperature;BMP_pressure;BME280_temperature;BME280_humidity;BME280_pressure;Samples;Min_cycle;Max_cycle;Signal;HPM_P1;HPM_P2
2022/07/11 00:02:13;;;;;;;4.00;1.80;;;;;16.10;97263.40;;;;110475;1254;41625;-67
2022/07/11 00:04:45;;;;;;;4.50;2.00;;;;;16.10;97256.60;;;;110651;1253;41475;-67
2022/07/11 00:07:15;;;;;;;3.80;1.80;;;;;16.10;97253.80;;;;110554;1251;41149;-67
2022/07/11 00:09:45;;;;;;;4.60;1.80;;;;;16.02;97248.80;;;;110566;1253;41413;-67
2022/07/11 00:12:15;;;;;;;3.10;1.60;;;;;16.00;97249.40;;;;110540;1253;41813;-66
2022/07/11 00:14:45;;;;;;;4.20;1.80;;;;;16.00;97255.20;;;;110533;1253;41302;-66
2022/07/11 00:17:16;;;;;;;;;;;;;16.00;97255.20;;;;110416;1254;41175;-65
2022/07/11 00:19:46;;;;;;;3.00;1.70;;;;;16.00;97253.80;;;;110492;1253;41136;-65
2022/07/11 00:22:17;;;;;;;2.60;1.50;;;;;16.00;97254.60;;;;110561;1253;41172;-66
2022/07/11 00:24:48;;;;;;;2.40;1.50;;;;;16.00;97254.80;;;;110519;1253;41253;-66
2022/07/11 00:27:19;;;;;;;3.50;1.70;;;;;16.00;97261.80;;;;110496;1254;40740;-66
2022/07/11 00:29:50;;;;;;;3.40;1.70;;;;;16.00;97260.00;;;;110459;1253;42379;-67
2022/07/11 00:32:21;;;;;;;4.80;2.00;;;;;16.00;97257.60;;;;110505;1253;41271;-67
2022/07/11 00:34:52;;;;;;;3.70;1.70;;;;;16.02;97258.80;;;;110551;1252;41895;-66
2022/07/11 00:37:23;;;;;;;3.60;1.80;;;;;16.02;97263.00;;;;110554;1253;41380;-66
2022/07/11 00:39:53;;;;;;;4.00;1.80;;;;;16.00;97261.80;;;;110436;1254;41683;-66
2022/07/11 00:42:23;;;;;;;3.70;1.80;;;;;16.00;97265.00;;;;110516;1254;41191;-68
2022/07/11 00:44:55;;;;;;;3.00;1.50;;;;;16.00;97267.20;;;;110538;1253;42048;-67
2022/07/11 00:47:25;;;;;;;;;;;;;15.98;97265.20;;;;110634;1253;42664;-66
2022/07/11 00:49:56;;;;;;;3.10;1.60;;;;;15.92;97265.40;;;;110450;1255;41143;-66
2022/07/11 00:52:26;;;;;;;;;;;;;16.00;97267.20;;;;110551;1253;41438;-67
2022/07/11 00:54:57;;;;;;;5.30;1.70;;;;;16.00;97262.40;;;;110446;1253;41213;-67
2022/07/11 00:57:28;;;;;;;3.10;1.60;;;;;16.00;97261.40;;;;110551;1252;41478;-67
2022/07/11 00:59:59;;;;;;;2.60;1.50;;;;;16.00;97256.00;;;;110522;1253;42385;-66
2022/07/11 01:02:29;;;;;;;2.20;1.60;;;;;16.00;97259.60;;;;110622;1253;41178;-66
2022/07/11 01:04:59;;;;;;;3.40;1.70;;;;;16.00;97257.80;;;;110492;1254;41165;-67
2022/07/11 01:07:30;;;;;;;2.60;1.40;;;;;16.00;97253.60;;;;110564;1253;41155;-66
2022/07/11 01:10:01;;;;;;;3.10;1.50;;;;;16.00;97254.80;;;;110479;1253;41156;-66
2022/07/11 01:12:34;;;;;;;2.50;1.50;;;;;16.00;97257.20;;;;110599;1253;41453;-67
2022/07/11 01:15:10;;;;;;;1.80;1.30;;;;;16.00;97255.40;;;;110609;1253;41185;-67
2022/07/11 01:17:42;;;;;;;2.50;1.50;;;;;16.00;97251.80;;;;110528;1253;41157;-67
2022/07/11 01:20:13;;;;;;;3.90;1.80;;;;;16.00;97253.80;;;;110541;1251;41270;-67
2022/07/11 01:22:54;;;;;;;3.80;1.60;;;;;16.00;97249.00;;;;110487;1254;41148;-67
2022/07/11 01:25:31;;;;;;;3.20;1.60;;;;;16.00;97247.80;;;;110511;1252;41273;-67
2022/07/11 01:28:03;;;;;;;3.10;1.60;;;;;16.00;97247.60;;;;110375;1255;41134;-67
2022/07/11 01:30:34;;;;;;;2.60;1.50;;;;;16.00;97251.60;;;;110551;1253;41381;-67
2022/07/11 01:33:04;;;;;;;3.80;1.60;;;;;16.00;97253.00;;;;110525;1253;41578;-66
2022/07/11 01:35:36;;;;;;;2.80;1.60;;;;;16.00;97257.00;;;;110583;1253;42010;-66
2022/07/11 01:38:07;;;;;;;3.00;1.40;;;;;15.90;97261.40;;;;110503;1255;41279;-66
2022/07/11 01:40:41;;;;;;;2.30;1.40;;;;;15.90;97264.00;;;;110484;1253;41265;-67
2022/07/11 01:43:14;;;;;;;2.50;1.50;;;;;15.80;97259.80;;;;110602;1253;41624;-67
2022/07/11 01:45:45;;;;;;;2.80;1.60;;;;;15.80;97266.00;;;;110515;1252;41261;-67
2022/07/11 01:48:17;;;;;;;2.40;1.50;;;;;15.78;97261.00;;;;110470;1254;41395;-66
2022/07/11 01:50:50;;;;;;;3.60;1.80;;;;;15.70;97261.40;;;;110580;1252;41144;-67
2022/07/11 01:53:21;;;;;;;4.40;1.90;;;;;15.60;97259.80;;;;110528;1251;41140;-66
2022/07/11 01:55:53;;;;;;;4.50;1.90;;;;;15.50;97261.80;;;;110535;1253;41884;-67
2022/07/11 01:58:45;;;;;;;4.90;1.90;;;;;15.40;97265.00;;;;110534;1253;41155;-67
2022/07/11 02:01:18;;;;;;;6.00;1.80;;;;;15.30;97265.40;;;;110725;1253;41617;-65
2022/07/11 02:03:55;;;;;;;4.00;1.60;;;;;15.30;97270.20;;;;110509;1253;41140;-66
2022/07/11 02:06:27;;;;;;;3.40;1.60;;;;;15.20;97269.00;;;;110440;1253;41654;-66
2022/07/11 02:08:58;;;;;;;2.30;1.40;;;;;15.20;97266.80;;;;110546;1253;41167;-67
2022/07/11 02:11:29;;;;;;;;;;;;;15.20;97270.80;;;;110465;1254;41657;-67
2022/07/11 02:14:00;;;;;;;;;;;;;15.20;97273.00;;;;110470;1254;41885;-68
2022/07/11 02:16:32;;;;;;;1.50;1.30;;;;;15.10;97276.00;;;;110500;1253;41576;-67
2022/07/11 02:19:06;;;;;;;2.10;1.40;;;;;15.10;97276.80;;;;110558;1253;41616;-67
2022/07/11 02:21:38;;;;;;;2.90;1.50;;;;;15.10;97276.80;;;;110420;1255;41896;-67
2022/07/11 02:24:10;;;;;;;2.70;1.60;;;;;15.10;97276.60;;;;110415;1253;41863;-65
2022/07/11 02:26:41;;;;;;;2.50;1.50;;;;;15.06;97279.80;;;;110584;1253;41430;-67
2022/07/11 02:29:12;;;;;;;1.80;1.40;;;;;15.00;97282.60;;;;110722;1253;41186;-67
2022/07/11 02:31:42;;;;;;;;;;;;;15.00;97281.20;;;;110509;1253;41921;-67
2022/07/11 02:34:13;;;;;;;2.40;1.60;;;;;14.90;97283.20;;;;110515;1252;41161;-68
2022/07/11 02:36:43;;;;;;;3.30;1.60;;;;;14.90;97281.80;;;;110492;1254;42370;-67
2022/07/11 02:39:14;;;;;;;2.60;1.50;;;;;14.80;97285.20;;;;110362;1256;41682;-67
2022/07/11 02:41:44;;;;;;;4.00;1.70;;;;;14.80;97281.40;;;;110392;1254;41933;-66
2022/07/11 02:44:15;;;;;;;2.60;1.50;;;;;14.70;97285.20;;;;110479;1254;41152;-67
2022/07/11 02:46:45;;;;;;;;;;;;;14.70;97286.40;;;;110370;1254;41386;-67
2022/07/11 02:49:15;;;;;;;3.10;1.70;;;;;14.60;97284.40;;;;110519;1254;41159;-67
2022/07/11 02:51:48;;;;;;;2.00;1.50;;;;;14.60;97286.20;;;;110435;1254;41729;-66
2022/07/11 02:54:19;;;;;;;3.40;1.70;;;;;14.60;97290.80;;;;110494;1254;41264;-66
2022/07/11 02:56:49;;;;;;;4.10;1.70;;;;;14.60;97291.80;;;;110508;1254;41191;-67
2022/07/11 02:59:21;;;;;;;2.70;1.50;;;;;14.54;97291.00;;;;110474;1252;41133;-67
2022/07/11 03:01:54;;;;;;;4.80;1.70;;;;;14.50;97298.00;;;;110438;1254;41691;-67
2022/07/11 03:04:25;;;;;;;4.00;1.80;;;;;14.50;97303.20;;;;110518;1252;41277;-67
2022/07/11 03:06:57;;;;;;;4.20;1.70;;;;;14.40;97298.00;;;;110515;1253;41152;-67
2022/07/11 03:09:27;;;;;;;3.20;1.60;;;;;14.40;97303.00;;;;110458;1253;41271;-66
2022/07/11 03:11:58;;;;;;;3.50;1.80;;;;;14.40;97308.60;;;;110409;1253;41114;-66
2022/07/11 03:14:28;;;;;;;3.40;1.80;;;;;14.40;97308.60;;;;110201;1254;41735;-66
2022/07/11 03:16:58;;;;;;;2.50;1.50;;;;;14.46;97312.40;;;;110317;1254;41256;-67
2022/07/11 03:19:29;;;;;;;3.80;1.80;;;;;14.50;97307.60;;;;110563;1253;41189;-67
2022/07/11 03:22:00;;;;;;;3.80;1.70;;;;;14.50;97308.80;;;;110516;1255;41176;-69
2022/07/11 03:24:30;;;;;;;3.50;1.70;;;;;14.50;97309.00;;;;110478;1255;41437;-67
2022/07/11 03:27:01;;;;;;;3.40;1.70;;;;;14.50;97310.20;;;;110528;1254;41158;-67
2022/07/11 03:29:33;;;;;;;3.20;1.80;;;;;14.50;97307.40;;;;110489;1253;41145;-67
2022/07/11 03:32:04;;;;;;;3.80;1.80;;;;;14.50;97308.20;;;;110486;1253;41155;-67
2022/07/11 03:34:33;;;;;;;;;;;;;14.50;97309.60;;;;110278;1255;41161;-66
2022/07/11 03:37:04;;;;;;;3.40;2.00;;;;;14.40;97308.40;;;;110397;1254;41273;-67
2022/07/11 03:39:34;;;;;;;4.20;1.80;;;;;14.46;97312.40;;;;110399;1253;41347;-68
2022/07/11 03:42:05;;;;;;;4.80;2.00;;;;;14.40;97308.00;;;;110454;1254;41267;-68
2022/07/11 03:44:35;;;;;;;4.30;2.10;;;;;14.48;97309.20;;;;110449;1254;41518;-66
2022/07/11 03:47:06;;;;;;;4.30;1.90;;;;;14.48;97308.00;;;;110329;1254;42397;-68
2022/07/11 03:49:36;;;;;;;4.10;1.70;;;;;14.50;97303.80;;;;110525;1253;41141;-67
2022/07/11 03:52:07;;;;;;;3.90;1.90;;;;;14.50;97303.40;;;;110535;1253;41311;-68
2022/07/11 03:54:37;;;;;;;3.50;1.90;;;;;14.50;97305.00;;;;110384;1256;41157;-68
2022/07/11 03:57:08;;;;;;;5.20;2.20;;;;;14.50;97311.20;;;;110466;1256;41095;-67
2022/07/11 03:59:37;;;;;;;4.50;2.10;;;;;14.54;97313.40;;;;110444;1253;41272;-68
2022/07/11 04:02:06;;;;;;;4.60;2.00;;;;;14.60;97310.60;;;;110596;1253;41161;-68
2022/07/11 04:04:36;;;;;;;5.20;2.00;;;;;14.70;97317.20;;;;110506;1253;41278;-68
2022/07/11 04:07:07;;;;;;;3.80;2.00;;;;;14.80;97324.20;;;;110461;1254;41973;-68
2022/07/11 04:09:36;;;;;;;4.00;1.80;;;;;14.90;97327.80;;;;110512;1254;41254;-68
2022/07/11 04:12:07;;;;;;;3.90;2.00;;;;;15.00;97331.40;;;;110461;1253;41201;-68
2022/07/11 04:14:36;;;;;;;4.50;1.90;;;;;15.10;97324.40;;;;110480;1253;41603;-67
2022/07/11 04:17:06;;;;;;;4.00;1.90;;;;;15.20;97327.00;;;;110507;1253;41140;-68
2022/07/11 04:19:36;;;;;;;4.20;1.90;;;;;15.24;97322.60;;;;110709;1253;41235;-69
2022/07/11 04:22:06;;;;;;;2.90;1.70;;;;;15.30;97324.20;;;;110478;1254;41408;-68
2022/07/11 04:24:35;;;;;;;5.90;1.80;;;;;15.40;97319.60;;;;110497;1253;41793;-67
2022/07/11 04:27:05;;;;;;;4.00;1.80;;;;;15.50;97324.00;;;;110462;1254;41219;-68
2022/07/11 04:29:35;;;;;;;2.60;1.70;;;;;15.60;97324.00;;;;110382;1255;42862;-67
2022/07/11 04:32:06;;;;;;;2.60;1.60;;;;;15.76;97326.20;;;;110361;1254;41415;-69
2022/07/11 04:34:36;;;;;;;3.10;1.50;;;;;15.90;97328.00;;;;110510;1253;42238;-68
2022/07/11 04:37:06;;;;;;;2.80;1.50;;;;;16.10;97331.00;;;;110474;1254;41342;-68
2022/07/11 04:39:40;;;;;;;2.60;1.50;;;;;16.20;97335.00;;;;110516;1253;41620;-66
2022/07/11 04:42:17;;;;;;;3.60;1.70;;;;;16.30;97332.60;;;;110507;1254;41930;-68
2022/07/11 04:44:58;;;;;;;5.80;1.90;;;;;16.40;97334.40;;;;110471;1254;41779;-65
2022/07/11 04:47:35;;;;;;;3.50;1.90;;;;;16.40;97337.60;;;;110466;1254;41593;-68
2022/07/11 04:50:05;;;;;;;3.80;1.60;;;;;16.40;97342.80;;;;110504;1254;41185;-66
2022/07/11 04:52:35;;;;;;;5.40;1.90;;;;;16.50;97348.00;;;;110615;1256;41847;-67
2022/07/11 04:55:04;;;;;;;5.40;1.90;;;;;16.60;97353.40;;;;110479;1253;41724;-68
2022/07/11 04:57:33;;;;;;;3.80;1.90;;;;;16.70;97351.20;;;;110658;1253;41147;-67
2022/07/11 05:00:04;;;;;;;3.40;1.60;;;;;16.70;97356.00;;;;110665;1253;41276;-68
2022/07/11 05:02:33;;;;;;;5.20;1.90;;;;;16.70;97363.80;;;;110494;1253;41163;-68
2022/07/11 05:05:03;;;;;;;3.00;1.70;;;;;16.70;97363.60;;;;110516;1254;41854;-67
2022/07/11 05:07:33;;;;;;;4.10;1.70;;;;;16.70;97368.60;;;;110226;1255;41814;-68
2022/07/11 05:10:03;;;;;;;3.10;1.70;;;;;16.70;97369.00;;;;110513;1253;41141;-69
2022/07/11 05:12:32;;;;;;;4.00;1.90;;;;;16.70;97367.20;;;;110697;1253;40756;-69
2022/07/11 05:15:02;;;;;;;4.10;1.80;;;;;16.80;97368.00;;;;110630;1253;41141;-68
2022/07/11 05:17:31;;;;;;;4.60;1.70;;;;;16.82;97371.60;;;;110553;1254;41244;-68
2022/07/11 05:20:00;;;;;;;3.10;1.70;;;;;16.90;97374.60;;;;110668;1254;41369;-69
2022/07/11 05:22:30;;;;;;;2.80;1.60;;;;;17.00;97381.40;;;;110644;1253;42398;-67
2022/07/11 05:24:59;;;;;;;4.80;1.90;;;;;17.10;97379.80;;;;110581;1253;41341;-68
2022/07/11 05:27:27;;;;;;;4.30;1.70;;;;;17.10;97371.40;;;;110638;1253;41261;-67
2022/07/11 05:29:57;;;;;;;5.30;1.80;;;;;17.10;97373.20;;;;110467;1254;41136;-67
2022/07/11 05:32:26;;;;;;;4.30;1.70;;;;;17.20;97372.40;;;;110683;1253;41394;-68
2022/07/11 05:35:02;;;;;;;3.60;1.80;;;;;17.34;97369.40;;;;110672;1253;41878;-68
2022/07/11 05:37:31;;;;;;;3.00;1.60;;;;;17.40;97371.00;;;;110620;1253;41160;-67
2022/07/11 05:40:00;;;;;;;2.80;1.80;;;;;17.50;97372.40;;;;110297;1256;41150;-68
2022/07/11 05:42:34;;;;;;;5.30;2.00;;;;;17.60;97377.40;;;;110470;1253;41632;-67
2022/07/11 05:45:04;;;;;;;5.20;1.70;;;;;17.50;97378.20;;;;110316;1254;41916;-67
2022/07/11 05:47:33;;;;;;;3.50;1.60;;;;;17.50;97378.00;;;;110344;1256;41255;-66
2022/07/11 05:50:04;;;;;;;7.60;1.90;;;;;17.48;97375.60;;;;110492;1253;41150;-67
2022/07/11 05:52:33;;;;;;;3.50;1.70;;;;;17.50;97374.20;;;;110537;1253;41924;-67
2022/07/11 05:55:03;;;;;;;4.20;2.20;;;;;17.62;97371.20;;;;110540;1253;41172;-68
2022/07/11 05:57:33;;;;;;;2.90;1.70;;;;;17.68;97376.20;;;;110441;1253;41264;-66
2022/07/11 06:00:04;;;;;;;2.80;1.70;;;;;17.70;97376.20;;;;110414;1254;41149;-67
2022/07/11 06:02:36;;;;;;;4.20;1.60;;;;;17.88;97373.60;;;;110302;1254;41901;-67
2022/07/11 06:05:07;;;;;;;3.90;1.80;;;;;18.70;97366.20;;;;110411;1255;40872;-67
2022/07/11 06:10:31;;;;;;;3.80;1.70;;;;;20.72;97362.80;;;;110562;1253;41158;-67
2022/07/11 06:13:01;;;;;;;4.60;1.70;;;;;21.94;97357.60;;;;110517;1253;41273;-67
2022/07/11 06:15:31;;;;;;;5.50;1.70;;;;;22.88;97357.40;;;;110463;1253;41943;-68
2022/07/11 06:18:00;;;;;;;4.90;1.50;;;;;23.68;97348.20;;;;110505;1253;41189;-68
2022/07/11 06:20:30;;;;;;;5.30;1.50;;;;;24.14;97352.60;;;;110472;1253;42490;-68
2022/07/11 06:22:59;;;;;;;2.90;1.50;;;;;24.90;97345.60;;;;110703;1254;41739;-68
2022/07/11 06:25:28;;;;;;;3.80;1.50;;;;;25.48;97342.80;;;;110599;1253;41276;-68
2022/07/11 06:27:57;;;;;;;2.90;1.60;;;;;26.02;97349.00;;;;110668;1253;41168;-68
2022/07/11 06:30:27;;;;;;;3.40;1.50;;;;;26.40;97355.20;;;;110548;1253;41899;-67
2022/07/11 06:32:59;;;;;;;3.40;1.60;;;;;26.12;97348.80;;;;110645;1253;42197;-67
2022/07/11 06:35:28;;;;;;;3.40;1.40;;;;;26.60;97355.40;;;;110514;1253;41167;-68
2022/07/11 06:37:58;;;;;;;3.20;1.70;;;;;26.32;97354.40;;;;110561;1253;42384;-67
2022/07/11 06:40:28;;;;;;;2.60;1.40;;;;;25.80;97346.20;;;;110489;1254;41440;-67
2022/07/11 06:42:57;;;;;;;3.80;1.60;;;;;26.46;97349.40;;;;110512;1253;41662;-65
2022/07/11 06:45:26;;;;;;;2.00;1.40;;;;;26.64;97356.20;;;;110521;1253;41950;-67
2022/07/11 06:47:55;;;;;;;2.10;1.30;;;;;25.64;97365.00;;;;110476;1253;41262;-67
2022/07/11 06:50:25;;;;;;;2.70;1.40;;;;;24.82;97370.20;;;;110250;1254;41197;-67
2022/07/11 06:52:54;;;;;;;3.10;1.40;;;;;23.92;97364.40;;;;110433;1253;41165;-68
2022/07/11 06:55:26;;;;;;;4.50;1.50;;;;;24.32;97359.40;;;;110516;1254;41200;-67
2022/07/11 06:57:56;;;;;;;3.20;1.60;;;;;25.64;97353.80;;;;110547;1254;41257;-68
2022/07/11 07:00:45;;;;;;;4.30;1.60;;;;;27.02;97348.00;;;;110481;1253;42095;-65
2022/07/11 07:03:14;;;;;;;3.30;1.60;;;;;27.80;97337.60;;;;110481;1256;41965;-71
2022/07/11 07:05:47;;;;;;;4.80;1.70;;;;;27.64;97357.60;;;;110679;1253;41401;-70
2022/07/11 07:08:17;;;;;;;3.30;1.50;;;;;26.14;97358.20;;;;110592;1255;41530;-70
2022/07/11 07:10:46;;;;;;;2.50;1.50;;;;;25.62;97345.20;;;;110510;1256;41592;-71
2022/07/11 07:13:15;;;;;;;1.90;1.40;;;;;26.44;97342.00;;;;110599;1253;41182;-71
2022/07/11 07:15:47;;;;;;;4.00;1.60;;;;;26.44;97341.20;;;;110617;1254;41186;-70
2022/07/11 07:18:24;;;;;;;2.00;1.40;;;;;25.76;97354.20;;;;110642;1253;41142;-71
2022/07/11 07:21:04;;;;;;;2.70;1.50;;;;;25.20;97358.40;;;;110582;1254;41572;-72
2022/07/11 07:23:39;;;;;;;2.40;1.40;;;;;24.90;97364.00;;;;110532;1255;41152;-70
2022/07/11 07:26:08;;;;;;;4.00;1.60;;;;;24.72;97367.80;;;;110574;1253;41958;-69
2022/07/11 07:28:38;;;;;;;3.20;1.60;;;;;24.50;97368.80;;;;110292;1254;429021;-71
2022/07/11 07:31:10;;;;;;;4.40;1.30;;;;;24.24;97373.20;;;;110588;1254;41271;-72
2022/07/11 07:33:43;;;;;;;3.70;1.40;;;;;24.24;97372.00;;;;110560;1254;41741;-69
2022/07/11 07:36:14;;;;;;;2.90;1.40;;;;;24.10;97371.00;;;;110609;1253;41927;-70
2022/07/11 07:38:47;;;;;;;2.90;1.40;;;;;23.90;97373.00;;;;110524;1256;41142;-71
2022/07/11 07:41:21;;;;;;;3.40;1.40;;;;;23.86;97373.00;;;;110530;1254;41631;-70
2022/07/11 07:43:51;;;;;;;3.50;1.40;;;;;23.90;97375.80;;;;110490;1255;41146;-70
2022/07/11 07:46:20;;;;;;;2.60;1.30;;;;;23.90;97376.00;;;;110642;1254;41841;-70
2022/07/11 07:48:50;;;;;;;3.10;1.50;;;;;23.90;97376.40;;;;110512;1254;42038;-70
2022/07/11 07:51:19;;;;;;;2.10;1.30;;;;;23.90;97376.00;;;;110503;1255;41877;-70
2022/07/11 07:53:48;;;;;;;1.60;1.30;;;;;23.94;97377.40;;;;110554;1253;42471;-68
2022/07/11 07:56:24;;;;;;;2.30;1.40;;;;;24.10;97378.00;;;;110497;1254;41905;-69
2022/07/11 07:58:55;;;;;;;;;;;;;24.22;97372.40;;;;110615;1253;41447;-70
2022/07/11 08:01:37;;;;;;;;;;;;;24.30;97368.20;;;;110557;1254;41167;-71
2022/07/11 08:04:08;;;;;;;2.10;1.20;;;;;24.40;97375.40;;;;110546;1254;41626;-69
2022/07/11 08:06:37;;;;;;;2.00;1.40;;;;;24.10;97374.60;;;;110534;1253;41159;-70
2022/07/11 08:09:07;;;;;;;3.40;1.60;;;;;24.30;97370.80;;;;110645;1253;41214;-68
2022/07/11 08:11:36;;;;;;;4.10;1.50;;;;;24.22;97372.20;;;;110652;1253;41197;-70
2022/07/11 08:14:07;;;;;;;1.70;1.20;;;;;23.66;97373.60;;;;110650;1254;41636;-70
2022/07/11 08:16:36;;;;;;;3.40;1.30;;;;;23.62;97376.00;;;;110678;1254;41265;-69
2022/07/11 08:19:06;;;;;;;2.90;1.40;;;;;23.96;97379.20;;;;110651;1254;41253;-70
2022/07/11 08:21:35;;;;;;;3.00;1.30;;;;;24.20;97377.40;;;;110536;1254;41193;-69
2022/07/11 08:24:05;;;;;;;2.20;1.40;;;;;24.40;97372.20;;;;110641;1253;41153;-71
2022/07/11 08:26:34;;;;;;;2.30;1.20;;;;;24.50;97377.00;;;;110566;1254;41975;-74
2022/07/11 08:29:04;;;;;;;1.60;1.20;;;;;24.60;97381.40;;;;110468;1256;41951;-74
2022/07/11 08:31:33;;;;;;;2.30;1.50;;;;;24.60;97381.40;;;;110467;1255;41683;-73
2022/07/11 08:34:02;;;;;;;3.80;1.30;;;;;24.08;97393.80;;;;110563;1253;41914;-74
2022/07/11 08:36:34;;;;;;;5.30;1.30;;;;;23.70;97387.40;;;;110546;1254;41256;-74
2022/07/11 08:39:04;;;;;;;3.40;1.50;;;;;23.70;97388.00;;;;110367;1256;41156;-75
2022/07/11 08:41:33;;;;;;;3.00;1.30;;;;;23.80;97391.00;;;;110516;1256;42026;-77
2022/07/11 08:44:02;;;;;;;2.70;1.40;;;;;23.80;97381.00;;;;110470;1255;42398;-73
2022/07/11 08:46:31;;;;;;;3.80;1.40;;;;;24.00;97383.40;;;;110436;1256;41272;-74
2022/07/11 08:49:03;;;;;;;3.40;1.30;;;;;24.20;97385.40;;;;110517;1255;41650;-72
2022/07/11 08:51:32;;;;;;;2.80;1.30;;;;;24.30;97392.60;;;;110505;1256;41159;-73
2022/07/11 08:54:01;;;;;;;3.00;1.30;;;;;24.56;97387.60;;;;110526;1255;41139;-74
2022/07/11 08:56:31;;;;;;;3.20;1.10;;;;;24.82;97383.20;;;;110571;1254;41795;-74
2022/07/11 08:59:01;;;;;;;2.70;1.20;;;;;25.08;97388.40;;;;110435;1255;41610;-75
2022/07/11 09:01:32;;;;;;;2.80;1.10;;;;;25.32;97381.40;;;;110576;1255;41804;-74
2022/07/11 09:04:01;;;;;;;2.30;1.20;;;;;25.50;97386.20;;;;110647;1254;41823;-74
2022/07/11 09:06:30;;;;;;;3.70;1.50;;;;;25.76;97373.40;;;;110505;1256;41619;-71
2022/07/11 09:09:00;;;;;;;3.40;1.30;;;;;25.96;97373.80;;;;110525;1254;41180;-73
2022/07/11 09:11:49;;;;;;;2.10;1.10;;;;;25.98;97368.20;;;;110607;1253;41155;-72
2022/07/11 09:14:30;;;;;;;3.90;1.10;;;;;25.70;97368.80;;;;110650;1252;41198;-74
2022/07/11 09:17:03;;;;;;;2.00;1.00;;;;;25.94;97366.00;;;;110629;1253;42412;-74
2022/07/11 09:19:37;;;;;;;2.40;1.00;;;;;26.10;97363.60;;;;110613;1253;41637;-73
2022/07/11 09:27:52;;;;;;;1.00;0.90;;;;;27.02;97369.80;;;;110599;1253;41472;-73
2022/07/11 09:30:27;;;;;;;1.80;1.10;;;;;27.66;97368.80;;;;110475;1255;41609;-77
2022/07/11 09:33:00;;;;;;;1.90;1.00;;;;;28.56;97362.20;;;;110642;1254;42543;-78
2022/07/11 09:35:35;;;;;;;3.90;1.40;;;;;28.92;97369.80;;;;110664;1254;41177;-76
2022/07/11 09:38:06;;;;;;;2.60;1.10;;;;;28.90;97367.80;;;;110686;1254;42164;-77
2022/07/11 09:40:36;;;;;;;1.10;1.00;;;;;29.22;97363.60;;;;110601;1255;41500;-75
2022/07/11 09:43:05;;;;;;;2.50;1.20;;;;;29.62;97367.60;;;;110731;1254;41477;-75
2022/07/11 09:45:35;;;;;;;3.60;1.10;;;;;30.12;97366.00;;;;110514;1253;41204;-73
2022/07/11 09:48:12;;;;;;;2.40;1.00;;;;;29.52;97361.40;;;;110422;1253;42277;-74
2022/07/11 09:50:56;;;;;;;1.70;1.00;;;;;29.58;97350.20;;;;110668;1253;41578;-77
2022/07/11 09:53:25;;;;;;;1.80;1.00;;;;;30.06;97351.20;;;;110664;1253;41600;-76
2022/07/11 09:55:54;;;;;;;1.00;0.80;;;;;30.42;97339.20;;;;110585;1253;41267;-76
2022/07/11 09:58:29;;;;;;;2.40;0.80;;;;;30.50;97342.80;;;;110503;1254;42163;-77
2022/07/11 10:00:58;;;;;;;2.60;1.20;;;;;30.60;97340.80;;;;110737;1251;42670;-76
2022/07/11 10:03:28;;;;;;;5.50;1.20;;;;;30.38;97338.60;;;;110467;1255;42296;-75
2022/07/11 10:06:17;;;;;;;2.80;1.00;;;;;29.60;97347.20;;;;110557;1254;41155;-75
2022/07/11 10:08:46;;;;;;;1.40;0.80;;;;;29.20;97354.40;;;;110499;1255;41140;-77
2022/07/11 10:11:14;;;;;;;1.60;1.00;;;;;29.40;97357.20;;;;110474;1254;41267;-74
2022/07/11 10:13:44;;;;;;;2.10;1.00;;;;;29.60;97357.00;;;;110631;1253;41137;-75
2022/07/11 10:16:21;;;;;;;1.90;1.00;;;;;29.78;97360.80;;;;110639;1254;41593;-76
2022/07/11 10:19:05;;;;;;;1.20;0.90;;;;;29.88;97367.20;;;;110610;1254;41855;-77
2022/07/11 10:21:59;;;;;;;0.90;0.70;;;;;29.48;97359.60;;;;110526;1255;41162;-76
2022/07/11 10:24:45;;;;;;;3.90;1.10;;;;;29.76;97361.40;;;;110625;1253;41161;-74
2022/07/11 10:27:37;;;;;;;2.90;1.00;;;;;29.92;97356.40;;;;110658;1253;41844;-74
2022/07/11 10:30:13;;;;;;;1.60;0.90;;;;;29.70;97352.60;;;;110634;1253;41628;-76
2022/07/11 10:32:59;;;;;;;0.80;0.80;;;;;30.00;97350.20;;;;110489;1256;41159;-75
2022/07/11 10:35:31;;;;;;;1.70;1.00;;;;;30.16;97348.40;;;;110669;1254;41277;-77
2022/07/11 10:38:05;;;;;;;2.50;1.10;;;;;30.14;97357.20;;;;110585;1254;41256;-75
2022/07/11 10:40:45;;;;;;;4.00;1.20;;;;;29.48;97358.20;;;;110538;1256;41625;-76
2022/07/11 10:43:21;;;;;;;1.50;0.80;;;;;28.96;97349.20;;;;110711;1253;41273;-77
2022/07/11 10:46:11;;;;;;;2.60;1.10;;;;;29.00;97353.40;;;;110606;1254;41610;-78
2022/07/11 10:49:00;;;;;;;1.00;1.00;;;;;29.00;97357.60;;;;110591;1253;41454;-76
2022/07/11 10:51:42;;;;;;;2.00;1.10;;;;;29.00;97358.00;;;;110444;1256;42327;-74
2022/07/11 10:54:51;;;;;;;3.20;1.10;;;;;29.34;97359.80;;;;110597;1253;41110;-76
2022/07/11 10:57:29;;;;;;;2.10;1.00;;;;;29.50;97351.40;;;;110631;1253;41210;-75
2022/07/11 11:00:05;;;;;;;3.10;1.00;;;;;30.34;97343.40;;;;110645;1254;41184;-74
2022/07/11 11:03:04;;;;;;;0.80;0.70;;;;;30.66;97344.00;;;;110664;1254;40766;-75
2022/07/11 11:05:44;;;;;;;1.70;1.10;;;;;30.98;97337.80;;;;110502;1255;42083;-76
2022/07/11 11:08:40;;;;;;;1.20;0.90;;;;;31.78;97342.40;;;;110661;1253;41152;-75
2022/07/11 11:11:24;;;;;;;2.60;0.90;;;;;31.20;97356.00;;;;110622;1253;41149;-75
2022/07/11 11:14:27;;;;;;;2.20;1.00;;;;;30.20;97349.00;;;;110655;1254;41741;-76
2022/07/11 11:17:35;;;;;;;2.60;1.10;;;;;30.48;97335.20;;;;110562;1256;41867;-76
2022/07/11 11:20:05;;;;;;;1.90;1.00;;;;;31.30;97340.20;;;;110521;1254;40914;-77
2022/07/11 11:22:34;;;;;;;2.20;1.00;;;;;32.00;97339.00;;;;110606;1253;42000;-74
2022/07/11 11:25:03;;;;;;;3.30;1.20;;;;;32.70;97330.00;;;;110628;1254;41607;-77
2022/07/11 11:28:03;;;;;;;4.80;1.00;;;;;33.88;97333.20;;;;110593;1253;41616;-74
2022/07/11 11:30:32;;;;;;;1.50;0.90;;;;;34.34;97329.80;;;;110655;1253;41190;-76
2022/07/11 11:33:15;;;;;;;1.10;0.80;;;;;34.80;97342.00;;;;110609;1253;41814;-75
2022/07/11 11:35:45;;;;;;;1.20;0.70;;;;;33.70;97330.60;;;;110707;1253;41143;-76
2022/07/11 11:38:14;;;;;;;0.80;0.80;;;;;34.00;97323.00;;;;110603;1253;41151;-77
2022/07/11 11:40:49;;;;;;;1.30;0.90;;;;;34.20;97336.20;;;;110644;1254;41623;-75
2022/07/11 11:43:22;;;;;;;1.40;1.00;;;;;33.22;97331.00;;;;110644;1254;41972;-76
2022/07/11 11:45:53;;;;;;;1.90;0.70;;;;;31.94;97330.60;;;;110594;1254;41607;-75
2022/07/11 11:48:28;;;;;;;1.00;0.90;;;;;31.86;97335.00;;;;110634;1253;40935;-76
2022/07/11 11:51:04;;;;;;;2.00;0.90;;;;;31.34;97341.20;;;;110599;1255;41162;-76
2022/07/11 11:53:37;;;;;;;1.70;0.80;;;;;30.70;97338.00;;;;110611;1253;41264;-75
2022/07/11 11:56:16;;;;;;;0.80;0.60;;;;;31.10;97336.00;;;;110576;1254;41610;-75
2022/07/11 11:58:45;;;;;;;1.20;0.70;;;;;31.80;97326.60;;;;110691;1254;41510;-76
2022/07/11 12:01:25;;;;;;;2.20;0.90;;;;;31.96;97335.40;;;;110695;1253;41590;-76
2022/07/11 12:03:59;;;;;;;1.40;0.90;;;;;31.06;97341.60;;;;110681;1254;41951;-76
2022/07/11 12:06:36;;;;;;;2.50;1.00;;;;;30.64;97335.40;;;;110618;1253;41192;-77
2022/07/11 12:09:19;;;;;;;1.60;0.70;;;;;31.72;97336.00;;;;110648;1253;41317;-76
2022/07/11 12:14:41;;;;;;;1.90;1.00;;;;;32.06;97340.80;;;;110477;1254;41520;-75
2022/07/11 12:17:10;;;;;;;0.80;0.80;;;;;31.28;97346.60;;;;110550;1254;41245;-75
2022/07/11 12:19:41;;;;;;;0.90;0.90;;;;;30.00;97353.20;;;;110468;1256;40894;-74
2022/07/11 12:22:10;;;;;;;2.00;1.00;;;;;29.48;97354.80;;;;110644;1253;41682;-75
2022/07/11 12:24:39;;;;;;;2.10;0.80;;;;;28.76;97356.40;;;;110568;1255;41156;-74
2022/07/11 12:27:08;;;;;;;1.80;0.90;;;;;28.36;97358.20;;;;110572;1255;41282;-74
2022/07/11 12:29:40;;;;;;;2.90;1.00;;;;;28.00;97356.00;;;;110636;1253;41166;-76
2022/07/11 12:32:14;;;;;;;0.70;0.70;;;;;27.88;97358.60;;;;110573;1255;42357;-73
2022/07/11 12:34:45;;;;;;;2.10;1.00;;;;;27.56;97362.80;;;;110655;1254;41168;-75
2022/07/11 12:37:18;;;;;;;0.90;0.70;;;;;27.28;97363.80;;;;110515;1253;41169;-75
2022/07/11 12:39:51;;;;;;;1.30;0.80;;;;;27.04;97354.40;;;;110596;1253;42020;-76
2022/07/11 12:42:35;;;;;;;1.50;0.70;;;;;26.80;97349.60;;;;110542;1255;41309;-75
2022/07/11 12:45:08;;;;;;;0.70;0.70;;;;;26.70;97354.80;;;;110616;1253;41183;-75
2022/07/11 12:47:43;;;;;;;1.80;0.80;;;;;26.70;97361.80;;;;110563;1255;41178;-78
2022/07/11 12:50:18;;;;;;;0.90;0.80;;;;;26.60;97358.60;;;;110545;1255;41616;-77